Altoona, Pennsylvania
Current Conditions -  °F | °C
As of 11:53 AM on Tuesday 21 Oct 2014 (Local Time) from KAOO Reporting Station
Overcast Overcast  
Wind Chill: 54°   Ceiling: 3400
Heat Index: 54°   Visibility: 10mi
Dew Point: 49°   Wind: 7mph
Humidity: 83%   Direction: 220°SW
Pressure: 29.87"   Gusts: NA
Location:  40.51°N, 78.4°W
Report Text: KAOO 211553Z AUTO 22006KT 10SM FEW016 BKN034 OVC046 12/09 A2987 RMK AO2 SLP117 T01220094
Loading
Personal Weather Stations






























Interactive Weather Map New forecast layout! Learn more

10-Day Weather Forecast

Advertisements
Track Severe Weather on mobile